Caracas, Venezuela

6:07 PM VET on March 06, 2015 (GMT -0430)
Chacao | Change Station
CLOSE
Current Station
Personal Weather Station
Location: Caracas, DISTRITO FEDERAL
Elevation: 3015 ft
Nearby Weather Stations

Elev 3015 ft 10.49 °N, 66.86 °W | Updated 12 minutes ago

Mostly Cloudy
Mostly Cloudy
73.7 °F
Feels Like 76 °F
N
2.0
Wind Variable Wind from West
Gusts 6.0 mph

Today
High -- | Low -- °F
--% Chance of Precip.
Yesterday
High -- | Low -- °F
Precip. -- in
6:09 AM 6:08 PM
Full, 99% visible
Pressure 29.95 in
Visibility 6.2 miles
Clouds Mostly Cloudy 1300 ft
Heat Index 76 °F
Dew Point 62 °F
Humidity 66%
Rainfall in
Snow Depth Not available.
UV 0 out of 12
Pollen Not available.
Air Quality Not available.
Flu Activity Not available.
METAR SVBS 062200Z 29015KT 9999 BKN013 29/22 Q1014

More Conditions Fewer Conditions

Pressure 29.95 in
Visibility 6.2 miles
Clouds Mostly Cloudy 1300 ft
Heat Index 76 °F
Dew Point 62 °F
Humidity 66%
Rainfall in
Snow Depth Not available.
UV 0 out of 12
Pollen Not available.
Air Quality Not available.
Flu Activity Not available.
METAR SVBS 062200Z 29015KT 9999 BKN013 29/22 Q1014

More Conditions Fewer Conditions

10-Day Weather Forecast

Almanac

Astronomy

Mar. 06, 2015 Rise Set
Actual Time
Civil Twilight
Nautical Twilight
Astronomical Twilight
Moon
Length of Visible Light
Length of Day
Tomorrow will be .
, % of the Moon is Illuminated

Today's Extremes

Country Highs Country Lows

Community

WunderPhotos

Upload Photos

1,803,420 photos uploaded!

WunderBlogs® & News

Nearby

Air Quality

  Air Quality AQ Index Pollutant
Not available.

Snow Depth

Station Depth Elevation

Earthquake Activity

City Distance Mag. Time & Date
Minimum magnitude displayed is 2.5.

Coastal Water Temperatures

Place Temperature

Nearby Weather Stations